sensor_id;sensor_type;location;lat;lon;timestamp;temperature;humidity
47857;DHT22;33618;49.972;8.242;2022-09-03T00:01:43;18.30;61.30
47857;DHT22;33618;49.972;8.242;2022-09-03T00:04:17;18.30;61.20
47857;DHT22;33618;49.972;8.242;2022-09-03T00:06:59;18.30;61.30
47857;DHT22;33618;49.972;8.242;2022-09-03T00:09:47;18.30;61.30
47857;DHT22;33618;49.972;8.242;2022-09-03T00:12:27;18.20;61.40
47857;DHT22;33618;49.972;8.242;2022-09-03T00:15:14;18.30;61.30
47857;DHT22;33618;49.972;8.242;2022-09-03T00:17:56;18.20;61.60
47857;DHT22;33618;49.972;8.242;2022-09-03T00:20:43;18.20;61.30
47857;DHT22;33618;49.972;8.242;2022-09-03T00:42:58;18.00;61.70
47857;DHT22;33618;49.972;8.242;2022-09-03T00:50:33;17.90;62.00
47857;DHT22;33618;49.972;8.242;2022-09-03T00:55:57;17.90;62.20
47857;DHT22;33618;49.972;8.242;2022-09-03T01:07:22;17.80;62.40
47857;DHT22;33618;49.972;8.242;2022-09-03T01:15:29;17.80;62.90
47857;DHT22;33618;49.972;8.242;2022-09-03T01:26:28;17.70;63.10
47857;DHT22;33618;49.972;8.242;2022-09-03T01:29:20;17.80;63.20
47857;DHT22;33618;49.972;8.242;2022-09-03T01:34:33;17.70;63.00
47857;DHT22;33618;49.972;8.242;2022-09-03T01:37:18;17.70;63.20
47857;DHT22;33618;49.972;8.242;2022-09-03T01:40:00;17.70;63.50
47857;DHT22;33618;49.972;8.242;2022-09-03T01:57:42;17.70;64.20
47857;DHT22;33618;49.972;8.242;2022-09-03T02:00:19;17.70;63.60
47857;DHT22;33618;49.972;8.242;2022-09-03T02:02:48;17.80;63.60
47857;DHT22;33618;49.972;8.242;2022-09-03T02:07:59;17.80;64.10
47857;DHT22;33618;49.972;8.242;2022-09-03T02:10:46;17.90;63.80
47857;DHT22;33618;49.972;8.242;2022-09-03T02:16:14;18.00;63.40
47857;DHT22;33618;49.972;8.242;2022-09-03T02:18:45;18.00;63.40
47857;DHT22;33618;49.972;8.242;2022-09-03T02:21:17;18.00;63.50
47857;DHT22;33618;49.972;8.242;2022-09-03T02:23:46;18.00;63.50
47857;DHT22;33618;49.972;8.242;2022-09-03T02:26:18;18.00;63.60
47857;DHT22;33618;49.972;8.242;2022-09-03T02:28:47;18.00;63.40
47857;DHT22;33618;49.972;8.242;2022-09-03T02:31:15;18.10;63.30
47857;DHT22;33618;49.972;8.242;2022-09-03T02:33:44;18.10;63.70
47857;DHT22;33618;49.972;8.242;2022-09-03T02:36:14;18.10;63.50
47857;DHT22;33618;49.972;8.242;2022-09-03T02:38:43;18.10;63.30
47857;DHT22;33618;49.972;8.242;2022-09-03T02:41:11;18.10;63.80
47857;DHT22;33618;49.972;8.242;2022-09-03T02:43:49;18.20;63.20
47857;DHT22;33618;49.972;8.242;2022-09-03T02:46:22;18.10;63.80
47857;DHT22;33618;49.972;8.242;2022-09-03T02:48:53;18.10;63.70
47857;DHT22;33618;49.972;8.242;2022-09-03T02:54:44;18.10;63.70
47857;DHT22;33618;49.972;8.242;2022-09-03T02:57:14;18.20;64.00
47857;DHT22;33618;49.972;8.242;2022-09-03T02:59:45;18.20;63.80
47857;DHT22;33618;49.972;8.242;2022-09-03T03:02:12;18.20;63.50
47857;DHT22;33618;49.972;8.242;2022-09-03T03:04:39;18.20;63.60
47857;DHT22;33618;49.972;8.242;2022-09-03T03:07:06;18.20;64.10
47857;DHT22;33618;49.972;8.242;2022-09-03T03:09:33;18.20;64.00
47857;DHT22;33618;49.972;8.242;2022-09-03T03:12:00;18.10;63.90
47857;DHT22;33618;49.972;8.242;2022-09-03T03:14:27;18.10;63.80
47857;DHT22;33618;49.972;8.242;2022-09-03T03:16:54;18.10;64.00
47857;DHT22;33618;49.972;8.242;2022-09-03T03:19:21;18.10;64.10
47857;DHT22;33618;49.972;8.242;2022-09-03T03:21:48;18.10;63.90
47857;DHT22;33618;49.972;8.242;2022-09-03T03:24:15;18.10;64.20
47857;DHT22;33618;49.972;8.242;2022-09-03T03:26:42;18.10;63.90
47857;DHT22;33618;49.972;8.242;2022-09-03T03:29:14;18.10;64.00
47857;DHT22;33618;49.972;8.242;2022-09-03T03:31:43;18.10;64.10
47857;DHT22;33618;49.972;8.242;2022-09-03T03:34:10;18.20;64.10
47857;DHT22;33618;49.972;8.242;2022-09-03T03:36:37;18.10;64.30
47857;DHT22;33618;49.972;8.242;2022-09-03T03:39:04;18.10;64.20
47857;DHT22;33618;49.972;8.242;2022-09-03T03:41:33;18.10;64.30
47857;DHT22;33618;49.972;8.242;2022-09-03T03:44:03;18.00;64.00
47857;DHT22;33618;49.972;8.242;2022-09-03T03:46:33;18.00;64.60
47857;DHT22;33618;49.972;8.242;2022-09-03T03:49:00;18.00;64.40
47857;DHT22;33618;49.972;8.242;2022-09-03T03:54:51;17.90;64.70
47857;DHT22;33618;49.972;8.242;2022-09-03T03:57:21;17.80;65.00
47857;DHT22;33618;49.972;8.242;2022-09-03T03:59:49;17.80;65.00
47857;DHT22;33618;49.972;8.242;2022-09-03T04:02:16;17.80;65.30
47857;DHT22;33618;49.972;8.242;2022-09-03T04:04:43;17.70;65.40
47857;DHT22;33618;49.972;8.242;2022-09-03T04:07:10;17.70;65.40
47857;DHT22;33618;49.972;8.242;2022-09-03T04:09:37;17.60;65.90
47857;DHT22;33618;49.972;8.242;2022-09-03T04:12:05;17.60;66.00
47857;DHT22;33618;49.972;8.242;2022-09-03T04:14:34;17.40;66.30
47857;DHT22;33618;49.972;8.242;2022-09-03T04:17:01;17.40;66.80
47857;DHT22;33618;49.972;8.242;2022-09-03T04:19:29;17.40;67.00
47857;DHT22;33618;49.972;8.242;2022-09-03T04:21:56;17.40;66.80
47857;DHT22;33618;49.972;8.242;2022-09-03T04:24:23;17.40;66.90
47857;DHT22;33618;49.972;8.242;2022-09-03T04:26:50;17.40;66.80
47857;DHT22;33618;49.972;8.242;2022-09-03T04:29:17;17.50;67.00
47857;DHT22;33618;49.972;8.242;2022-09-03T04:31:44;17.40;66.80
47857;DHT22;33618;49.972;8.242;2022-09-03T04:34:31;17.40;66.70
47857;DHT22;33618;49.972;8.242;2022-09-03T04:36:58;17.40;67.00
47857;DHT22;33618;49.972;8.242;2022-09-03T04:39:25;17.50;67.20
47857;DHT22;33618;49.972;8.242;2022-09-03T04:41:52;17.50;67.30
47857;DHT22;33618;49.972;8.242;2022-09-03T04:44:19;17.50;67.10
47857;DHT22;33618;49.972;8.242;2022-09-03T04:46:46;17.50;67.60
47857;DHT22;33618;49.972;8.242;2022-09-03T04:49:13;17.40;67.60
47857;DHT22;33618;49.972;8.242;2022-09-03T04:55:41;17.50;67.50
47857;DHT22;33618;49.972;8.242;2022-09-03T04:58:08;17.60;67.70
47857;DHT22;33618;49.972;8.242;2022-09-03T05:00:36;17.60;67.50
47857;DHT22;33618;49.972;8.242;2022-09-03T05:03:03;17.70;67.40
47857;DHT22;33618;49.972;8.242;2022-09-03T05:05:31;17.70;67.80
47857;DHT22;33618;49.972;8.242;2022-09-03T05:07:59;17.80;67.70
47857;DHT22;33618;49.972;8.242;2022-09-03T05:10:30;17.90;68.00
47857;DHT22;33618;49.972;8.242;2022-09-03T05:13:02;17.80;68.10
47857;DHT22;33618;49.972;8.242;2022-09-03T05:15:30;17.80;69.50
47857;DHT22;33618;49.972;8.242;2022-09-03T05:17:59;17.80;69.60
47857;DHT22;33618;49.972;8.242;2022-09-03T05:20:29;17.90;69.70
47857;DHT22;33618;49.972;8.242;2022-09-03T05:22:59;17.90;69.60
47857;DHT22;33618;49.972;8.242;2022-09-03T05:25:26;17.80;68.80
47857;DHT22;33618;49.972;8.242;2022-09-03T05:27:53;17.90;69.30
47857;DHT22;33618;49.972;8.242;2022-09-03T05:30:20;17.80;70.00
47857;DHT22;33618;49.972;8.242;2022-09-03T05:32:49;17.80;70.60
47857;DHT22;33618;49.972;8.242;2022-09-03T05:35:16;17.80;71.10
47857;DHT22;33618;49.972;8.242;2022-09-03T05:37:43;17.80;70.60
47857;DHT22;33618;49.972;8.242;2022-09-03T05:40:10;17.80;70.90
47857;DHT22;33618;49.972;8.242;2022-09-03T05:42:38;17.80;70.90
47857;DHT22;33618;49.972;8.242;2022-09-03T05:45:08;17.80;71.70
47857;DHT22;33618;49.972;8.242;2022-09-03T05:47:37;17.80;71.80
47857;DHT22;33618;49.972;8.242;2022-09-03T05:50:06;17.90;72.00
47857;DHT22;33618;49.972;8.242;2022-09-03T05:56:06;17.90;78.60
47857;DHT22;33618;49.972;8.242;2022-09-03T05:58:35;17.70;83.00
47857;DHT22;33618;49.972;8.242;2022-09-03T06:01:22;17.70;84.00
47857;DHT22;33618;49.972;8.242;2022-09-03T06:04:13;17.60;85.60
47857;DHT22;33618;49.972;8.242;2022-09-03T06:06:42;17.50;87.40
47857;DHT22;33618;49.972;8.242;2022-09-03T06:09:20;17.50;90.50
47857;DHT22;33618;49.972;8.242;2022-09-03T06:11:49;17.50;90.10
47857;DHT22;33618;49.972;8.242;2022-09-03T06:14:18;17.40;94.60
47857;DHT22;33618;49.972;8.242;2022-09-03T06:16:47;17.40;96.50
47857;DHT22;33618;49.972;8.242;2022-09-03T06:19:19;17.50;94.90
47857;DHT22;33618;49.972;8.242;2022-09-03T06:21:46;18.00;93.60
47857;DHT22;33618;49.972;8.242;2022-09-03T06:24:16;18.20;93.10
47857;DHT22;33618;49.972;8.242;2022-09-03T06:26:43;18.50;93.90
47857;DHT22;33618;49.972;8.242;2022-09-03T06:29:11;18.60;92.30
47857;DHT22;33618;49.972;8.242;2022-09-03T06:31:38;18.70;91.60
47857;DHT22;33618;49.972;8.242;2022-09-03T06:34:06;18.90;92.00
47857;DHT22;33618;49.972;8.242;2022-09-03T06:36:33;19.20;91.60
47857;DHT22;33618;49.972;8.242;2022-09-03T06:39:00;19.30;91.30
47857;DHT22;33618;49.972;8.242;2022-09-03T06:41:31;19.40;92.20
47857;DHT22;33618;49.972;8.242;2022-09-03T06:44:02;19.40;91.90
47857;DHT22;33618;49.972;8.242;2022-09-03T06:46:31;19.70;90.80
47857;DHT22;33618;49.972;8.242;2022-09-03T06:48:58;19.80;89.80
47857;DHT22;33618;49.972;8.242;2022-09-03T06:51:27;19.70;90.40
47857;DHT22;33618;49.972;8.242;2022-09-03T06:54:13;19.90;90.10
47857;DHT22;33618;49.972;8.242;2022-09-03T06:56:41;19.90;89.90
47857;DHT22;33618;49.972;8.242;2022-09-03T06:59:13;20.00;89.00
47857;DHT22;33618;49.972;8.242;2022-09-03T07:01:41;19.90;89.20
47857;DHT22;33618;49.972;8.242;2022-09-03T07:04:13;20.00;89.70
47857;DHT22;33618;49.972;8.242;2022-09-03T07:06:42;20.10;88.80
47857;DHT22;33618;49.972;8.242;2022-09-03T07:09:11;19.90;90.50
47857;DHT22;33618;49.972;8.242;2022-09-03T07:11:39;19.70;93.70
47857;DHT22;33618;49.972;8.242;2022-09-03T07:14:18;19.70;95.10
47857;DHT22;33618;49.972;8.242;2022-09-03T07:16:47;19.50;93.50
47857;DHT22;33618;49.972;8.242;2022-09-03T07:19:15;19.40;93.30
47857;DHT22;33618;49.972;8.242;2022-09-03T07:21:42;19.30;94.00
47857;DHT22;33618;49.972;8.242;2022-09-03T07:24:16;19.30;94.30
47857;DHT22;33618;49.972;8.242;2022-09-03T07:26:44;19.30;94.50
47857;DHT22;33618;49.972;8.242;2022-09-03T07:29:12;19.20;95.60
47857;DHT22;33618;49.972;8.242;2022-09-03T07:31:42;19.30;95.80
47857;DHT22;33618;49.972;8.242;2022-09-03T07:34:11;19.10;96.40
47857;DHT22;33618;49.972;8.242;2022-09-03T07:36:40;19.10;97.00
47857;DHT22;33618;49.972;8.242;2022-09-03T07:39:09;19.00;96.90
47857;DHT22;33618;49.972;8.242;2022-09-03T07:41:38;19.00;97.30
47857;DHT22;33618;49.972;8.242;2022-09-03T07:44:07;19.00;98.10
47857;DHT22;33618;49.972;8.242;2022-09-03T07:46:36;19.00;99.30
47857;DHT22;33618;49.972;8.242;2022-09-03T07:49:04;18.90;99.70
47857;DHT22;33618;49.972;8.242;2022-09-03T07:51:34;18.90;99.90
47857;DHT22;33618;49.972;8.242;2022-09-03T07:57:25;19.20;99.70
47857;DHT22;33618;49.972;8.242;2022-09-03T07:59:52;19.30;99.60
47857;DHT22;33618;49.972;8.242;2022-09-03T08:02:19;19.30;99.50
47857;DHT22;33618;49.972;8.242;2022-09-03T08:04:46;19.30;99.90
47857;DHT22;33618;49.972;8.242;2022-09-03T08:07:13;19.40;99.70
47857;DHT22;33618;49.972;8.242;2022-09-03T08:09:40;19.60;98.90
47857;DHT22;33618;49.972;8.242;2022-09-03T08:12:07;19.90;99.90
47857;DHT22;33618;49.972;8.242;2022-09-03T08:14:33;19.90;98.60
47857;DHT22;33618;49.972;8.242;2022-09-03T08:17:00;20.00;99.90
47857;DHT22;33618;49.972;8.242;2022-09-03T08:19:27;20.00;99.10
47857;DHT22;33618;49.972;8.242;2022-09-03T08:21:54;20.30;97.90
47857;DHT22;33618;49.972;8.242;2022-09-03T08:24:21;20.40;97.50
47857;DHT22;33618;49.972;8.242;2022-09-03T08:26:50;20.30;97.60
47857;DHT22;33618;49.972;8.242;2022-09-03T08:29:19;20.50;97.40
47857;DHT22;33618;49.972;8.242;2022-09-03T08:31:46;20.60;97.80
47857;DHT22;33618;49.972;8.242;2022-09-03T08:34:13;20.50;97.30
47857;DHT22;33618;49.972;8.242;2022-09-03T08:36:42;20.40;96.70
47857;DHT22;33618;49.972;8.242;2022-09-03T08:39:10;20.70;97.40
47857;DHT22;33618;49.972;8.242;2022-09-03T08:44:43;20.40;96.90
47857;DHT22;33618;49.972;8.242;2022-09-03T08:52:41;20.80;96.50
47857;DHT22;33618;49.972;8.242;2022-09-03T08:58:38;21.00;95.80
47857;DHT22;33618;49.972;8.242;2022-09-03T09:06:50;21.50;94.40
47857;DHT22;33618;49.972;8.242;2022-09-03T09:12:28;21.60;94.00
47857;DHT22;33618;49.972;8.242;2022-09-03T09:18:00;21.60;93.90
47857;DHT22;33618;49.972;8.242;2022-09-03T09:23:07;21.90;92.60
47857;DHT22;33618;49.972;8.242;2022-09-03T09:25:48;22.20;92.00
47857;DHT22;33618;49.972;8.242;2022-09-03T09:28:25;22.20;92.30
47857;DHT22;33618;49.972;8.242;2022-09-03T09:30:55;22.60;92.00
47857;DHT22;33618;49.972;8.242;2022-09-03T09:33:23;23.00;91.90
47857;DHT22;33618;49.972;8.242;2022-09-03T09:35:51;23.30;91.80
47857;DHT22;33618;49.972;8.242;2022-09-03T09:38:32;24.00;89.80
47857;DHT22;33618;49.972;8.242;2022-09-03T09:41:15;24.40;87.90
47857;DHT22;33618;49.972;8.242;2022-09-03T09:43:43;24.10;85.50
47857;DHT22;33618;49.972;8.242;2022-09-03T09:46:14;23.90;86.50
47857;DHT22;33618;49.972;8.242;2022-09-03T09:48:52;24.00;89.00
47857;DHT22;33618;49.972;8.242;2022-09-03T09:51:25;23.90;85.50
47857;DHT22;33618;49.972;8.242;2022-09-03T09:57:25;23.80;85.70
47857;DHT22;33618;49.972;8.242;2022-09-03T10:11:24;23.60;87.30
47857;DHT22;33618;49.972;8.242;2022-09-03T10:21:53;24.00;85.20
47857;DHT22;33618;49.972;8.242;2022-09-03T10:26:51;23.80;85.10
47857;DHT22;33618;49.972;8.242;2022-09-03T10:29:22;24.30;85.30
47857;DHT22;33618;49.972;8.242;2022-09-03T10:37:36;25.20;83.20
47857;DHT22;33618;49.972;8.242;2022-09-03T11:14:39;25.20;79.20
47857;DHT22;33618;49.972;8.242;2022-09-03T11:17:30;25.50;78.70
47857;DHT22;33618;49.972;8.242;2022-09-03T11:22:45;25.50;78.70
47857;DHT22;33618;49.972;8.242;2022-09-03T11:25:15;25.70;78.80
47857;DHT22;33618;49.972;8.242;2022-09-03T11:27:55;25.50;78.70
47857;DHT22;33618;49.972;8.242;2022-09-03T11:30:39;25.30;78.90
47857;DHT22;33618;49.972;8.242;2022-09-03T11:33:19;25.50;80.70
47857;DHT22;33618;49.972;8.242;2022-09-03T11:35:57;25.70;78.70
47857;DHT22;33618;49.972;8.242;2022-09-03T11:38:29;26.10;78.30
47857;DHT22;33618;49.972;8.242;2022-09-03T11:43:48;26.70;75.90
47857;DHT22;33618;49.972;8.242;2022-09-03T11:48:53;27.00;75.00
47857;DHT22;33618;49.972;8.242;2022-09-03T11:51:33;27.10;74.20
47857;DHT22;33618;49.972;8.242;2022-09-03T11:56:40;28.10;72.30
47857;DHT22;33618;49.972;8.242;2022-09-03T11:59:18;28.00;72.30
47857;DHT22;33618;49.972;8.242;2022-09-03T12:02:00;28.70;70.80
47857;DHT22;33618;49.972;8.242;2022-09-03T12:04:37;28.80;70.00
47857;DHT22;33618;49.972;8.242;2022-09-03T12:07:40;28.90;69.80
47857;DHT22;33618;49.972;8.242;2022-09-03T12:13:46;29.30;68.80
47857;DHT22;33618;49.972;8.242;2022-09-03T12:18:50;29.50;68.40
47857;DHT22;33618;49.972;8.242;2022-09-03T12:21:21;29.80;68.20
47857;DHT22;33618;49.972;8.242;2022-09-03T12:23:50;29.60;67.90
47857;DHT22;33618;49.972;8.242;2022-09-03T12:26:25;29.20;68.70
47857;DHT22;33618;49.972;8.242;2022-09-03T12:28:57;28.40;69.00
47857;DHT22;33618;49.972;8.242;2022-09-03T12:31:27;27.80;70.20
47857;DHT22;33618;49.972;8.242;2022-09-03T12:34:16;27.40;70.80
47857;DHT22;33618;49.972;8.242;2022-09-03T12:36:49;27.70;70.50
47857;DHT22;33618;49.972;8.242;2022-09-03T12:39:22;27.90;71.00
47857;DHT22;33618;49.972;8.242;2022-09-03T12:42:14;28.30;70.20
47857;DHT22;33618;49.972;8.242;2022-09-03T12:44:45;27.90;70.60
47857;DHT22;33618;49.972;8.242;2022-09-03T12:47:14;27.60;70.80
47857;DHT22;33618;49.972;8.242;2022-09-03T12:50:07;27.70;71.70
47857;DHT22;33618;49.972;8.242;2022-09-03T12:55:42;29.20;68.80
47857;DHT22;33618;49.972;8.242;2022-09-03T13:06:18;28.70;68.40
47857;DHT22;33618;49.972;8.242;2022-09-03T13:08:58;28.80;69.00
47857;DHT22;33618;49.972;8.242;2022-09-03T13:14:50;29.40;67.80
47857;DHT22;33618;49.972;8.242;2022-09-03T13:23:23;30.10;65.90
47857;DHT22;33618;49.972;8.242;2022-09-03T13:31:43;29.10;67.20
47857;DHT22;33618;49.972;8.242;2022-09-03T13:34:30;29.50;66.70
47857;DHT22;33618;49.972;8.242;2022-09-03T13:39:57;30.30;65.90
47857;DHT22;33618;49.972;8.242;2022-09-03T13:50:47;29.30;66.00
47857;DHT22;33618;49.972;8.242;2022-09-03T13:53:41;28.70;66.70
47857;DHT22;33618;49.972;8.242;2022-09-03T14:01:57;27.70;68.90
47857;DHT22;33618;49.972;8.242;2022-09-03T14:04:46;27.60;68.60
47857;DHT22;33618;49.972;8.242;2022-09-03T14:07:24;27.50;69.70
47857;DHT22;33618;49.972;8.242;2022-09-03T14:17:25;27.40;69.40
47857;DHT22;33618;49.972;8.242;2022-09-03T14:20:31;27.00;70.10
47857;DHT22;33618;49.972;8.242;2022-09-03T14:25:52;27.40;70.10
47857;DHT22;33618;49.972;8.242;2022-09-03T14:28:43;27.20;70.20
47857;DHT22;33618;49.972;8.242;2022-09-03T14:34:28;26.80;71.00
47857;DHT22;33618;49.972;8.242;2022-09-03T14:42:46;26.00;72.10
47857;DHT22;33618;49.972;8.242;2022-09-03T14:50:59;24.90;77.00
47857;DHT22;33618;49.972;8.242;2022-09-03T14:56:49;25.20;76.00
47857;DHT22;33618;49.972;8.242;2022-09-03T15:02:18;25.70;75.50
47857;DHT22;33618;49.972;8.242;2022-09-03T15:14:09;25.70;75.40
47857;DHT22;33618;49.972;8.242;2022-09-03T15:22:55;25.30;76.40
47857;DHT22;33618;49.972;8.242;2022-09-03T15:31:23;24.90;78.20
47857;DHT22;33618;49.972;8.242;2022-09-03T15:37:12;24.70;79.60
47857;DHT22;33618;49.972;8.242;2022-09-03T15:39:45;24.50;80.90
47857;DHT22;33618;49.972;8.242;2022-09-03T15:42:25;24.50;81.20
47857;DHT22;33618;49.972;8.242;2022-09-03T15:45:03;24.40;81.20
47857;DHT22;33618;49.972;8.242;2022-09-03T15:50:52;24.40;81.70
47857;DHT22;33618;49.972;8.242;2022-09-03T16:08:01;23.70;85.50
47857;DHT22;33618;49.972;8.242;2022-09-03T16:18:09;21.70;91.70
47857;DHT22;33618;49.972;8.242;2022-09-03T16:20:53;21.00;95.60
47857;DHT22;33618;49.972;8.242;2022-09-03T16:29:29;20.00;98.40
47857;DHT22;33618;49.972;8.242;2022-09-03T16:43:07;19.20;99.90
47857;DHT22;33618;49.972;8.242;2022-09-03T16:46:08;18.90;99.90
47857;DHT22;33618;49.972;8.242;2022-09-03T16:48:52;19.00;99.90
47857;DHT22;33618;49.972;8.242;2022-09-03T17:00:06;19.30;99.90
47857;DHT22;33618;49.972;8.242;2022-09-03T17:31:48;20.60;99.90
47857;DHT22;33618;49.972;8.242;2022-09-03T17:46:28;19.90;99.90
47857;DHT22;33618;49.972;8.242;2022-09-03T17:49:01;19.90;99.90
47857;DHT22;33618;49.972;8.242;2022-09-03T17:59:43;19.70;99.90
47857;DHT22;33618;49.972;8.242;2022-09-03T18:02:26;19.70;99.90
47857;DHT22;33618;49.972;8.242;2022-09-03T18:07:51;19.50;99.90
47857;DHT22;33618;49.972;8.242;2022-09-03T18:22:01;18.40;99.90
47857;DHT22;33618;49.972;8.242;2022-09-03T18:24:53;18.20;99.90
47857;DHT22;33618;49.972;8.242;2022-09-03T18:27:49;18.20;99.90
47857;DHT22;33618;49.972;8.242;2022-09-03T18:30:38;18.10;99.90
47857;DHT22;33618;49.972;8.242;2022-09-03T18:33:24;18.10;99.90
47857;DHT22;33618;49.972;8.242;2022-09-03T18:36:11;18.10;99.90
47857;DHT22;33618;49.972;8.242;2022-09-03T18:39:26;18.10;99.90
47857;DHT22;33618;49.972;8.242;2022-09-03T18:45:25;18.00;99.90
47857;DHT22;33618;49.972;8.242;2022-09-03T18:49:10;18.00;99.90
47857;DHT22;33618;49.972;8.242;2022-09-03T18:52:06;18.00;99.90
47857;DHT22;33618;49.972;8.242;2022-09-03T18:55:00;18.00;99.90
47857;DHT22;33618;49.972;8.242;2022-09-03T19:01:04;18.00;99.90
47857;DHT22;33618;49.972;8.242;2022-09-03T19:07:03;18.10;99.90
47857;DHT22;33618;49.972;8.242;2022-09-03T19:10:03;18.10;99.90
47857;DHT22;33618;49.972;8.242;2022-09-03T19:13:50;18.10;99.90
47857;DHT22;33618;49.972;8.242;2022-09-03T19:16:10;18.00;99.90
47857;DHT22;33618;49.972;8.242;2022-09-03T19:22:07;18.00;99.90
47857;DHT22;33618;49.972;8.242;2022-09-03T19:32:20;17.90;99.90
47857;DHT22;33618;49.972;8.242;2022-09-03T19:35:17;17.80;99.90
47857;DHT22;33618;49.972;8.242;2022-09-03T19:38:14;17.70;99.90
47857;DHT22;33618;49.972;8.242;2022-09-03T19:41:24;17.80;99.90
47857;DHT22;33618;49.972;8.242;2022-09-03T19:44:21;17.70;99.90
47857;DHT22;33618;49.972;8.242;2022-09-03T19:50:30;17.60;99.90
47857;DHT22;33618;49.972;8.242;2022-09-03T19:53:19;17.60;99.90
47857;DHT22;33618;49.972;8.242;2022-09-03T19:56:18;17.60;99.90
47857;DHT22;33618;49.972;8.242;2022-09-03T19:59:16;17.70;99.90
47857;DHT22;33618;49.972;8.242;2022-09-03T20:02:03;17.70;99.90
47857;DHT22;33618;49.972;8.242;2022-09-03T20:04:54;17.70;99.90
47857;DHT22;33618;49.972;8.242;2022-09-03T20:07:41;17.60;99.90
47857;DHT22;33618;49.972;8.242;2022-09-03T20:10:26;17.50;99.90
47857;DHT22;33618;49.972;8.242;2022-09-03T20:13:29;17.60;99.90
47857;DHT22;33618;49.972;8.242;2022-09-03T20:16:30;17.50;99.90
47857;DHT22;33618;49.972;8.242;2022-09-03T20:19:22;17.40;99.90
47857;DHT22;33618;49.972;8.242;2022-09-03T20:45:09;17.30;99.90
47857;DHT22;33618;49.972;8.242;2022-09-03T20:48:01;17.30;99.90
47857;DHT22;33618;49.972;8.242;2022-09-03T21:11:01;17.30;99.90
47857;DHT22;33618;49.972;8.242;2022-09-03T21:19:09;17.10;99.90
47857;DHT22;33618;49.972;8.242;2022-09-03T21:24:26;16.90;99.90
47857;DHT22;33618;49.972;8.242;2022-09-03T21:34:17;17.00;99.90
47857;DHT22;33618;49.972;8.242;2022-09-03T21:36:45;16.90;99.90
47857;DHT22;33618;49.972;8.242;2022-09-03T21:39:20;17.00;99.90
47857;DHT22;33618;49.972;8.242;2022-09-03T21:42:15;17.00;99.90
47857;DHT22;33618;49.972;8.242;2022-09-03T21:44:45;16.90;99.90
47857;DHT22;33618;49.972;8.242;2022-09-03T21:47:15;16.80;99.90
47857;DHT22;33618;49.972;8.242;2022-09-03T21:52:23;16.80;99.90
47857;DHT22;33618;49.972;8.242;2022-09-03T21:54:52;16.80;99.90
47857;DHT22;33618;49.972;8.242;2022-09-03T21:57:55;16.80;99.90
47857;DHT22;33618;49.972;8.242;2022-09-03T22:00:26;16.80;99.90
47857;DHT22;33618;49.972;8.242;2022-09-03T22:02:59;16.70;99.90
47857;DHT22;33618;49.972;8.242;2022-09-03T22:05:51;16.70;99.90
47857;DHT22;33618;49.972;8.242;2022-09-03T22:08:22;16.80;99.90
47857;DHT22;33618;49.972;8.242;2022-09-03T22:11:10;16.80;99.90
47857;DHT22;33618;49.972;8.242;2022-09-03T22:16:23;16.80;99.90
47857;DHT22;33618;49.972;8.242;2022-09-03T22:18:53;16.80;99.90
47857;DHT22;33618;49.972;8.242;2022-09-03T22:34:51;16.70;99.90
47857;DHT22;33618;49.972;8.242;2022-09-03T22:40:19;16.60;99.90
47857;DHT22;33618;49.972;8.242;2022-09-03T22:50:57;16.50;99.90
47857;DHT22;33618;49.972;8.242;2022-09-03T22:56:20;16.30;99.90
47857;DHT22;33618;49.972;8.242;2022-09-03T23:01:38;16.30;99.90
47857;DHT22;33618;49.972;8.242;2022-09-03T23:06:45;16.30;99.90
47857;DHT22;33618;49.972;8.242;2022-09-03T23:09:21;16.30;99.90
47857;DHT22;33618;49.972;8.242;2022-09-03T23:11:53;16.30;99.90
47857;DHT22;33618;49.972;8.242;2022-09-03T23:14:35;16.30;99.90
47857;DHT22;33618;49.972;8.242;2022-09-03T23:17:27;16.30;99.90
47857;DHT22;33618;49.972;8.242;2022-09-03T23:20:11;16.40;99.90
47857;DHT22;33618;49.972;8.242;2022-09-03T23:22:52;16.30;99.90
47857;DHT22;33618;49.972;8.242;2022-09-03T23:25:40;16.30;99.90
47857;DHT22;33618;49.972;8.242;2022-09-03T23:35:46;16.10;99.90
47857;DHT22;33618;49.972;8.242;2022-09-03T23:38:29;16.10;99.90
47857;DHT22;33618;49.972;8.242;2022-09-03T23:41:03;16.10;99.90
47857;DHT22;33618;49.972;8.242;2022-09-03T23:56:11;16.00;99.90
